Time;durP1;ratioP1;P1;durP2;ratioP2;P2;SDS_P1;SDS_P2;PMS_P1;PMS_P2;Temp;Humidity;BMP_temperature;BMP_pressure;BME280_temperature;BME280_humidity;BME280_pressure;Samples;Min_cycle;Max_cycle;Signal;HPM_P1;HPM_P2
2022/06/09 00:01:44;;;;;;;9.35;4.00;;;;;;;;;;5014650;28;20026;-44
2022/06/09 00:04:19;;;;;;;5.93;3.70;;;;;;;;;;5014603;28;20034;-44
2022/06/09 00:06:54;;;;;;;4.85;3.97;;;;;;;;;;5014871;28;20083;-47
2022/06/09 00:09:22;;;;;;;4.30;3.58;;;;;;;;;;5014868;28;20483;-50
2022/06/09 00:11:49;;;;;;;4.85;3.55;;;;;;;;;;5014451;28;20033;-46
2022/06/09 00:14:16;;;;;;;3.90;3.60;;;;;;;;;;4996849;28;20037;-43
2022/06/09 00:16:43;;;;;;;8.48;3.40;;;;;;;;;;5014385;28;20030;-43
2022/06/09 00:19:10;;;;;;;5.07;3.45;;;;;;;;;;5014525;28;20034;-49
2022/06/09 00:21:36;;;;;;;6.45;3.80;;;;;;;;;;4997117;28;20032;-47
2022/06/09 00:24:03;;;;;;;7.97;3.85;;;;;;;;;;5014522;28;20457;-46
2022/06/09 00:26:29;;;;;;;4.18;3.50;;;;;;;;;;5014214;28;20470;-50
2022/06/09 00:28:54;;;;;;;3.88;3.47;;;;;;;;;;5014226;28;20081;-47
2022/06/09 00:31:20;;;;;;;4.30;3.88;;;;;;;;;;5014660;28;20018;-47
2022/06/09 00:33:46;;;;;;;5.50;3.80;;;;;;;;;;4996565;28;20066;-49
2022/06/09 00:36:11;;;;;;;4.22;3.83;;;;;;;;;;5014287;28;20030;-45
2022/06/09 00:38:37;;;;;;;4.00;3.70;;;;;;;;;;5014059;28;20025;-47
2022/06/09 00:41:02;;;;;;;3.67;3.03;;;;;;;;;;5013509;28;20129;-45
2022/06/09 00:43:31;;;;;;;4.20;3.40;;;;;;;;;;5014146;28;20370;-50
2022/06/09 00:46:06;;;;;;;3.83;2.90;;;;;;;;;;5013970;28;20025;-44
2022/06/09 00:48:43;;;;;;;3.63;2.90;;;;;;;;;;5013556;28;20022;-48
2022/06/09 00:51:39;;;;;;;3.38;3.08;;;;;;;;;;5014053;28;20029;-46
2022/06/09 00:54:20;;;;;;;3.20;2.90;;;;;;;;;;5013778;28;20025;-44
2022/06/09 00:57:14;;;;;;;4.00;3.60;;;;;;;;;;5013964;28;20038;-47
2022/06/09 00:59:44;;;;;;;4.22;3.38;;;;;;;;;;5006147;28;20445;-46
2022/06/09 01:02:12;;;;;;;4.63;3.70;;;;;;;;;;5013890;28;20030;-49
2022/06/09 01:04:38;;;;;;;5.28;3.63;;;;;;;;;;5013502;28;20061;-45
2022/06/09 01:07:11;;;;;;;6.03;3.17;;;;;;;;;;5013453;28;20068;-46
2022/06/09 01:09:37;;;;;;;3.33;3.03;;;;;;;;;;5013980;28;20061;-47
2022/06/09 01:12:29;;;;;;;6.60;3.60;;;;;;;;;;4996207;28;20054;-48
2022/06/09 01:15:01;;;;;;;3.72;3.08;;;;;;;;;;5013619;28;20053;-46
2022/06/09 01:17:34;;;;;;;2.92;2.72;;;;;;;;;;5013480;28;20029;-45
2022/06/09 01:20:26;;;;;;;3.78;3.25;;;;;;;;;;5013227;28;20033;-50
2022/06/09 01:23:29;;;;;;;5.30;3.05;;;;;;;;;;5013493;28;20116;-45
2022/06/09 01:26:23;;;;;;;4.88;3.22;;;;;;;;;;5013434;28;20165;-45
2022/06/09 01:29:26;;;;;;;4.72;3.55;;;;;;;;;;4984328;28;20095;-45
2022/06/09 01:31:58;;;;;;;6.03;3.15;;;;;;;;;;5013354;28;20038;-50
2022/06/09 01:34:30;;;;;;;3.53;2.92;;;;;;;;;;5013621;28;20038;-47
2022/06/09 01:37:01;;;;;;;3.42;3.05;;;;;;;;;;5013011;28;20033;-49
2022/06/09 01:39:43;;;;;;;3.45;3.15;;;;;;;;;;5012889;28;20117;-44
2022/06/09 01:42:29;;;;;;;3.75;3.45;;;;;;;;;;5012926;28;20397;-48
2022/06/09 01:45:20;;;;;;;3.85;3.45;;;;;;;;;;5012979;28;20026;-50
2022/06/09 01:47:48;;;;;;;4.85;3.25;;;;;;;;;;5004663;28;20132;-43
2022/06/09 01:50:23;;;;;;;3.58;3.08;;;;;;;;;;5013042;28;20460;-48
2022/06/09 01:52:51;;;;;;;4.65;4.05;;;;;;;;;;5012773;28;20053;-45
2022/06/09 01:55:19;;;;;;;3.90;3.35;;;;;;;;;;5013035;28;20088;-47
2022/06/09 01:57:48;;;;;;;4.82;3.47;;;;;;;;;;5012727;28;20054;-47
2022/06/09 02:00:16;;;;;;;5.17;3.83;;;;;;;;;;4995547;28;20029;-45
2022/06/09 02:02:47;;;;;;;4.82;3.40;;;;;;;;;;5012645;28;20366;-47
2022/06/09 02:05:19;;;;;;;4.70;3.45;;;;;;;;;;5012957;28;20034;-44
2022/06/09 02:07:47;;;;;;;8.82;3.90;;;;;;;;;;4995159;28;20030;-50
2022/06/09 02:10:28;;;;;;;3.88;3.58;;;;;;;;;;5012596;28;20064;-47
2022/06/09 02:12:55;;;;;;;6.18;4.00;;;;;;;;;;5012967;28;20034;-48
2022/06/09 02:15:30;;;;;;;4.43;3.55;;;;;;;;;;5012837;28;20022;-47
2022/06/09 02:17:56;;;;;;;4.03;3.25;;;;;;;;;;5012481;28;20025;-48
2022/06/09 02:20:23;;;;;;;5.30;3.08;;;;;;;;;;5012503;28;20088;-46
2022/06/09 02:22:49;;;;;;;4.65;3.67;;;;;;;;;;5012509;28;20412;-46
2022/06/09 02:25:16;;;;;;;4.60;3.33;;;;;;;;;;5012454;28;20160;-49
2022/06/09 02:27:41;;;;;;;5.53;3.83;;;;;;;;;;5012759;28;20041;-47
2022/06/09 02:30:08;;;;;;;4.63;4.03;;;;;;;;;;5012770;28;20026;-46
2022/06/09 02:32:34;;;;;;;4.40;3.55;;;;;;;;;;5012410;28;20044;-47
2022/06/09 02:35:00;;;;;;;4.00;3.60;;;;;;;;;;5012375;28;20037;-46
2022/06/09 02:37:25;;;;;;;4.30;3.85;;;;;;;;;;5012321;28;20034;-50
2022/06/09 02:39:51;;;;;;;5.72;3.60;;;;;;;;;;5012174;28;20053;-46
2022/06/09 02:42:16;;;;;;;4.05;3.35;;;;;;;;;;5012664;28;20025;-43
2022/06/09 02:44:41;;;;;;;4.68;3.72;;;;;;;;;;5012330;28;20061;-49
2022/06/09 02:47:07;;;;;;;3.83;3.47;;;;;;;;;;4994826;28;20065;-50
2022/06/09 02:49:33;;;;;;;5.45;2.92;;;;;;;;;;5012544;28;20030;-45
2022/06/09 02:51:58;;;;;;;3.63;3.33;;;;;;;;;;5012790;28;20105;-48
2022/06/09 02:54:24;;;;;;;3.70;3.40;;;;;;;;;;5012185;28;20029;-48
2022/06/09 02:56:49;;;;;;;4.97;2.85;;;;;;;;;;5012438;28;20080;-47
2022/06/09 02:59:15;;;;;;;3.70;3.13;;;;;;;;;;5012177;28;20066;-46
2022/06/09 03:01:40;;;;;;;3.30;3.00;;;;;;;;;;5012168;28;20441;-44
2022/06/09 03:04:07;;;;;;;3.40;3.10;;;;;;;;;;5012136;28;20032;-45
2022/06/09 03:06:33;;;;;;;3.92;3.17;;;;;;;;;;5012085;28;20466;-51
2022/06/09 03:08:59;;;;;;;4.15;3.28;;;;;;;;;;5012058;28;20109;-48
2022/06/09 03:11:25;;;;;;;3.30;3.08;;;;;;;;;;5014905;28;20056;-44
2022/06/09 03:13:51;;;;;;;3.70;3.40;;;;;;;;;;5015468;28;20041;-49
2022/06/09 03:16:17;;;;;;;3.63;3.33;;;;;;;;;;4997950;28;20032;-47
2022/06/09 03:18:44;;;;;;;4.78;3.45;;;;;;;;;;5015813;28;20026;-50
2022/06/09 03:21:11;;;;;;;5.80;3.88;;;;;;;;;;5015453;28;20030;-49
2022/06/09 03:23:36;;;;;;;3.80;3.40;;;;;;;;;;5015729;28;20112;-49
2022/06/09 03:26:02;;;;;;;5.18;3.45;;;;;;;;;;5015353;28;20109;-49
2022/06/09 03:28:28;;;;;;;4.30;3.10;;;;;;;;;;5015360;28;20037;-48
2022/06/09 03:30:55;;;;;;;4.18;3.50;;;;;;;;;;5015337;28;20446;-50
2022/06/09 03:33:20;;;;;;;3.97;3.55;;;;;;;;;;4998189;28;20034;-51
2022/06/09 03:35:46;;;;;;;5.47;3.72;;;;;;;;;;5015188;28;20390;-50
2022/06/09 03:38:12;;;;;;;4.13;3.70;;;;;;;;;;5015376;28;20034;-50
2022/06/09 03:40:37;;;;;;;4.05;3.65;;;;;;;;;;5015003;28;20042;-48
2022/06/09 03:43:02;;;;;;;5.00;3.67;;;;;;;;;;5015345;28;20026;-47
2022/06/09 03:45:32;;;;;;;4.13;3.60;;;;;;;;;;5015277;28;20425;-48
2022/06/09 03:47:58;;;;;;;4.90;3.85;;;;;;;;;;5015027;28;20026;-46
2022/06/09 03:50:26;;;;;;;4.32;3.78;;;;;;;;;;5014865;28;20034;-44
2022/06/09 03:52:52;;;;;;;3.50;3.20;;;;;;;;;;5015064;28;20034;-46
2022/06/09 03:55:18;;;;;;;4.28;3.53;;;;;;;;;;5014789;28;20026;-52
2022/06/09 03:57:44;;;;;;;4.13;3.72;;;;;;;;;;5015046;28;20029;-48
2022/06/09 04:00:14;;;;;;;9.60;4.22;;;;;;;;;;5014888;28;20084;-46
2022/06/09 04:02:39;;;;;;;10.55;3.75;;;;;;;;;;5014918;28;20374;-48
2022/06/09 04:05:05;;;;;;;6.38;4.30;;;;;;;;;;5014918;28;20033;-48
2022/06/09 04:07:31;;;;;;;7.20;3.90;;;;;;;;;;5014516;28;20053;-46
2022/06/09 04:09:56;;;;;;;11.95;3.92;;;;;;;;;;5014779;28;20045;-48
2022/06/09 04:12:22;;;;;;;3.90;3.50;;;;;;;;;;5014763;28;20033;-52
2022/06/09 04:14:47;;;;;;;4.93;3.47;;;;;;;;;;5014416;28;20488;-45
2022/06/09 04:17:13;;;;;;;3.90;3.60;;;;;;;;;;5014410;28;20021;-49
2022/06/09 04:19:39;;;;;;;7.43;4.43;;;;;;;;;;5014242;28;20029;-47
2022/06/09 04:22:05;;;;;;;6.68;3.70;;;;;;;;;;5014200;28;20033;-48
2022/06/09 04:24:31;;;;;;;15.38;3.58;;;;;;;;;;5014150;28;20026;-51
2022/06/09 04:26:57;;;;;;;4.25;3.50;;;;;;;;;;5014025;28;20101;-48
2022/06/09 04:29:22;;;;;;;6.32;3.83;;;;;;;;;;5014424;28;20080;-45
2022/06/09 04:31:48;;;;;;;6.43;3.58;;;;;;;;;;5014015;28;20084;-47
2022/06/09 04:34:13;;;;;;;8.02;6.60;;;;;;;;;;5013735;28;20101;-48
2022/06/09 04:36:38;;;;;;;5.40;3.90;;;;;;;;;;5012426;28;20030;-43
2022/06/09 04:39:06;;;;;;;4.15;3.75;;;;;;;;;;5012618;28;20034;-46
2022/06/09 04:41:31;;;;;;;4.40;3.85;;;;;;;;;;5011994;28;20100;-47
2022/06/09 04:43:57;;;;;;;4.38;3.63;;;;;;;;;;5012342;28;20018;-48
2022/06/09 04:46:24;;;;;;;4.30;3.90;;;;;;;;;;5011930;28;20038;-49
2022/06/09 04:48:50;;;;;;;11.23;3.92;;;;;;;;;;5012184;28;20037;-50
2022/06/09 04:51:17;;;;;;;6.57;4.75;;;;;;;;;;5012176;28;20029;-44
2022/06/09 04:53:43;;;;;;;5.43;4.20;;;;;;;;;;5012479;28;20481;-50
2022/06/09 04:56:09;;;;;;;9.98;4.25;;;;;;;;;;5013638;28;20026;-44
2022/06/09 04:58:38;;;;;;;8.57;4.55;;;;;;;;;;5013512;28;20113;-46
2022/06/09 05:01:06;;;;;;;4.68;4.18;;;;;;;;;;4995967;28;20421;-49
2022/06/09 05:03:32;;;;;;;8.15;5.90;;;;;;;;;;5013805;28;20025;-51
2022/06/09 05:05:58;;;;;;;8.55;5.78;;;;;;;;;;5013699;28;20161;-46
2022/06/09 05:08:26;;;;;;;8.57;5.70;;;;;;;;;;5013417;28;20034;-48
2022/06/09 05:10:52;;;;;;;4.82;4.43;;;;;;;;;;5013414;28;20018;-47
2022/06/09 05:13:18;;;;;;;5.35;4.45;;;;;;;;;;5012192;28;20489;-48
2022/06/09 05:15:55;;;;;;;5.18;4.60;;;;;;;;;;5012807;28;20065;-48
2022/06/09 05:18:23;;;;;;;4.72;4.32;;;;;;;;;;5013300;28;20041;-45
2022/06/09 05:20:50;;;;;;;4.80;4.20;;;;;;;;;;5013325;28;20109;-52
2022/06/09 05:23:18;;;;;;;5.25;3.70;;;;;;;;;;4995732;28;20095;-46
2022/06/09 05:25:44;;;;;;;5.72;4.88;;;;;;;;;;5013174;28;20429;-50
2022/06/09 05:28:10;;;;;;;5.47;4.80;;;;;;;;;;5013462;28;20033;-52
2022/06/09 05:30:36;;;;;;;7.15;4.63;;;;;;;;;;5013803;28;20029;-45
2022/06/09 05:33:02;;;;;;;5.28;4.72;;;;;;;;;;5013283;28;20120;-46
2022/06/09 05:35:28;;;;;;;4.43;4.00;;;;;;;;;;5013580;28;20026;-45
2022/06/09 05:46:06;;;;;;;6.25;3.72;;;;;;;;;;5013173;28;20080;-48
2022/06/09 05:48:32;;;;;;;4.57;3.72;;;;;;;;;;5013035;28;20030;-47
2022/06/09 05:50:58;;;;;;;3.13;2.83;;;;;;;;;;5012989;28;20093;-48
2022/06/09 05:53:23;;;;;;;3.00;2.80;;;;;;;;;;5013020;28;20022;-47
2022/06/09 05:55:49;;;;;;;2.97;2.72;;;;;;;;;;5012793;28;20484;-47
2022/06/09 05:58:14;;;;;;;3.63;2.72;;;;;;;;;;5012938;28;20041;-47
2022/06/09 06:00:41;;;;;;;2.90;2.70;;;;;;;;;;5012771;28;20087;-48
2022/06/09 06:03:08;;;;;;;2.60;2.33;;;;;;;;;;5012652;28;20549;-45
2022/06/09 06:08:17;;;;;;;3.53;2.47;;;;;;;;;;5012742;28;20048;-53
2022/06/09 06:10:43;;;;;;;3.38;2.50;;;;;;;;;;5012668;28;20473;-47
2022/06/09 06:13:08;;;;;;;4.55;2.00;;;;;;;;;;5012861;28;20022;-53
2022/06/09 06:15:34;;;;;;;2.67;2.47;;;;;;;;;;5012540;28;20026;-49
2022/06/09 06:18:02;;;;;;;2.70;2.50;;;;;;;;;;5012712;28;20083;-49
2022/06/09 06:20:30;;;;;;;2.72;2.53;;;;;;;;;;5012605;28;20112;-47
2022/06/09 06:22:55;;;;;;;14.73;6.70;;;;;;;;;;5012518;28;20033;-49
2022/06/09 06:25:22;;;;;;;3.05;2.35;;;;;;;;;;5012778;28;20026;-49
2022/06/09 06:27:47;;;;;;;4.32;2.50;;;;;;;;;;5012500;28;20113;-52
2022/06/09 06:30:13;;;;;;;3.83;2.80;;;;;;;;;;5012550;28;20116;-47
2022/06/09 06:32:38;;;;;;;4.15;2.33;;;;;;;;;;5012709;28;20026;-49
2022/06/09 06:35:04;;;;;;;3.53;2.42;;;;;;;;;;5012404;28;20036;-45
2022/06/09 06:37:30;;;;;;;3.47;2.00;;;;;;;;;;4994887;28;20026;-50
2022/06/09 06:39:55;;;;;;;2.45;2.25;;;;;;;;;;5012196;28;20042;-48
2022/06/09 06:42:20;;;;;;;2.50;2.30;;;;;;;;;;5012254;28;20105;-48
2022/06/09 06:44:46;;;;;;;2.65;2.03;;;;;;;;;;5012749;28;20030;-49
2022/06/09 06:47:11;;;;;;;1.83;1.70;;;;;;;;;;5016037;28;20101;-50
2022/06/09 06:49:37;;;;;;;1.60;1.50;;;;;;;;;;5016292;28;20025;-47
2022/06/09 06:52:03;;;;;;;1.42;1.17;;;;;;;;;;5016279;28;20451;-49
2022/06/09 06:54:30;;;;;;;1.75;1.65;;;;;;;;;;5016244;28;20029;-48
2022/06/09 06:56:55;;;;;;;1.90;1.40;;;;;;;;;;5015887;28;20543;-51
2022/06/09 06:59:21;;;;;;;2.08;1.92;;;;;;;;;;5015865;28;20038;-50
2022/06/09 07:01:46;;;;;;;1.80;1.70;;;;;;;;;;5015742;28;20469;-50
2022/06/09 07:04:11;;;;;;;3.05;2.25;;;;;;;;;;5016102;28;20160;-51
2022/06/09 07:06:37;;;;;;;2.67;1.60;;;;;;;;;;5015995;28;20022;-45
2022/06/09 07:09:03;;;;;;;2.90;1.80;;;;;;;;;;5015926;28;20037;-48
2022/06/09 07:11:28;;;;;;;2.47;2.00;;;;;;;;;;5015950;28;20021;-50
2022/06/09 07:13:54;;;;;;;1.70;1.60;;;;;;;;;;5015946;28;20477;-50
2022/06/09 07:16:19;;;;;;;2.28;2.08;;;;;;;;;;5015811;28;20044;-51
2022/06/09 07:18:45;;;;;;;3.45;2.00;;;;;;;;;;5015382;28;20047;-48
2022/06/09 07:21:16;;;;;;;1.40;1.30;;;;;;;;;;5015763;28;20026;-46
2022/06/09 07:23:42;;;;;;;1.50;1.40;;;;;;;;;;5015461;28;20053;-49
2022/06/09 07:26:08;;;;;;;1.70;1.60;;;;;;;;;;5015641;28;20076;-54
2022/06/09 07:28:33;;;;;;;2.35;1.80;;;;;;;;;;5015582;28;20381;-51
2022/06/09 07:31:01;;;;;;;1.77;0.90;;;;;;;;;;5015580;28;20061;-50
2022/06/09 07:33:32;;;;;;;3.28;1.42;;;;;;;;;;5015502;28;20022;-49
2022/06/09 07:35:58;;;;;;;1.80;1.70;;;;;;;;;;5015491;28;20096;-45
2022/06/09 07:38:26;;;;;;;2.10;2.00;;;;;;;;;;5015408;28;20038;-48
2022/06/09 07:40:52;;;;;;;1.70;1.60;;;;;;;;;;5015086;28;20277;-47
2022/06/09 07:43:19;;;;;;;1.70;1.60;;;;;;;;;;5015113;28;20273;-45
2022/06/09 07:45:46;;;;;;;2.40;2.20;;;;;;;;;;5015034;28;20022;-50
2022/06/09 07:48:11;;;;;;;2.30;2.10;;;;;;;;;;5014968;28;20026;-47
2022/06/09 07:50:38;;;;;;;5.10;2.20;;;;;;;;;;5015176;28;20022;-51
2022/06/09 07:53:03;;;;;;;2.60;2.40;;;;;;;;;;5013332;28;20598;-44
2022/06/09 07:55:29;;;;;;;2.60;2.40;;;;;;;;;;5013318;28;20033;-45
2022/06/09 07:57:54;;;;;;;2.83;2.53;;;;;;;;;;5012872;28;20029;-49
2022/06/09 08:00:22;;;;;;;3.22;2.92;;;;;;;;;;5014677;28;20132;-52
2022/06/09 08:02:48;;;;;;;6.95;4.65;;;;;;;;;;5014105;28;20033;-54
2022/06/09 08:05:16;;;;;;;3.78;3.17;;;;;;;;;;5014847;28;20030;-50
2022/06/09 08:07:42;;;;;;;3.70;3.40;;;;;;;;;;4996939;28;20030;-48
2022/06/09 08:10:09;;;;;;;2.17;1.98;;;;;;;;;;5014738;28;20022;-44
2022/06/09 08:12:35;;;;;;;2.72;2.45;;;;;;;;;;5014673;28;20037;-50
2022/06/09 08:15:01;;;;;;;4.35;3.17;;;;;;;;;;5013642;28;20029;-49
2022/06/09 08:17:26;;;;;;;4.03;3.63;;;;;;;;;;5014348;28;20433;-46
2022/06/09 08:19:52;;;;;;;4.53;2.80;;;;;;;;;;5014227;28;20393;-47
2022/06/09 08:22:18;;;;;;;3.28;3.00;;;;;;;;;;5011981;28;20045;-45
2022/06/09 08:24:44;;;;;;;3.60;3.30;;;;;;;;;;5009972;28;20084;-51
2022/06/09 08:27:10;;;;;;;5.72;5.13;;;;;;;;;;5012768;28;20486;-51
2022/06/09 08:29:36;;;;;;;4.47;4.07;;;;;;;;;;5012618;28;20727;-51
2022/06/09 08:32:02;;;;;;;5.18;4.60;;;;;;;;;;5012351;28;20018;-47
2022/06/09 08:34:28;;;;;;;8.25;6.30;;;;;;;;;;5012866;28;20092;-47
2022/06/09 08:36:54;;;;;;;7.47;5.43;;;;;;;;;;5012734;28;20490;-45
2022/06/09 08:39:20;;;;;;;5.25;4.60;;;;;;;;;;5012627;28;20528;-50
2022/06/09 08:41:58;;;;;;;8.07;5.63;;;;;;;;;;5012215;28;20497;-47
2022/06/09 08:44:50;;;;;;;6.07;5.47;;;;;;;;;;5012339;28;20038;-46
2022/06/09 08:47:37;;;;;;;6.72;5.78;;;;;;;;;;5012343;28;20026;-48
2022/06/09 08:50:15;;;;;;;3.30;1.80;;;;;;;;;;5012294;28;20037;-49
2022/06/09 08:52:43;;;;;;;2.45;2.25;;;;;;;;;;5012413;28;20042;-49
2022/06/09 08:55:31;;;;;;;3.03;1.70;;;;;;;;;;5012464;28;20026;-46
2022/06/09 08:58:03;;;;;;;3.03;1.33;;;;;;;;;;5012296;28;20030;-50
2022/06/09 09:00:35;;;;;;;3.30;1.83;;;;;;;;;;5012332;28;20091;-45
2022/06/09 09:03:09;;;;;;;3.65;1.67;;;;;;;;;;5012089;28;20037;-48
2022/06/09 09:05:46;;;;;;;1.67;1.50;;;;;;;;;;5012200;28;20037;-49
2022/06/09 09:08:13;;;;;;;1.08;1.00;;;;;;;;;;4993613;28;20025;-50
2022/06/09 09:10:58;;;;;;;2.10;1.70;;;;;;;;;;5011898;28;20022;-47
2022/06/09 09:13:38;;;;;;;3.38;1.80;;;;;;;;;;5012117;28;20069;-46
2022/06/09 09:16:19;;;;;;;5.30;1.60;;;;;;;;;;5011772;28;20033;-49
2022/06/09 09:18:55;;;;;;;1.77;1.25;;;;;;;;;;5011873;28;20121;-46
2022/06/09 09:22:02;;;;;;;1.52;1.42;;;;;;;;;;5011891;28;20022;-48
2022/06/09 09:24:48;;;;;;;1.50;1.20;;;;;;;;;;4993686;28;20547;-52
2022/06/09 09:27:21;;;;;;;2.85;1.58;;;;;;;;;;4997639;28;20525;-47
2022/06/09 09:30:02;;;;;;;1.33;1.23;;;;;;;;;;5011979;28;20088;-47
2022/06/09 09:32:34;;;;;;;2.03;1.58;;;;;;;;;;5011940;28;20029;-51
2022/06/09 09:35:00;;;;;;;5.28;1.50;;;;;;;;;;5011553;28;20030;-46
2022/06/09 09:37:38;;;;;;;2.65;1.63;;;;;;;;;;5011672;28;20026;-46
2022/06/09 09:40:24;;;;;;;1.55;1.45;;;;;;;;;;5011298;28;20811;-46
2022/06/09 09:42:54;;;;;;;3.03;1.90;;;;;;;;;;5011220;28;20390;-48
2022/06/09 09:45:21;;;;;;;;;;;;;;;;;;5012449;28;20419;-48
2022/06/09 09:47:54;;;;;;;2.30;2.10;;;;;;;;;;5011539;28;20329;-50
2022/06/09 09:50:48;;;;;;;2.13;1.92;;;;;;;;;;5011377;28;20481;-47
2022/06/09 09:53:19;;;;;;;3.40;2.17;;;;;;;;;;5011222;28;20032;-48
2022/06/09 09:56:07;;;;;;;3.03;2.70;;;;;;;;;;5011588;28;20034;-49
2022/06/09 09:58:34;;;;;;;2.97;2.78;;;;;;;;;;5011314;28;20034;-52
2022/06/09 10:01:17;;;;;;;2.67;2.47;;;;;;;;;;5011525;28;20038;-48
2022/06/09 10:09:37;;;;;;;3.40;3.10;;;;;;;;;;5011395;28;20045;-45
2022/06/09 10:12:10;;;;;;;3.17;2.95;;;;;;;;;;5011427;28;20026;-46
2022/06/09 10:14:38;;;;;;;3.35;3.05;;;;;;;;;;5011289;28;20029;-48
2022/06/09 10:17:39;;;;;;;4.22;3.28;;;;;;;;;;5011279;28;20428;-48
2022/06/09 10:20:14;;;;;;;3.85;3.45;;;;;;;;;;5003123;28;20046;-45
2022/06/09 10:22:43;;;;;;;3.85;3.50;;;;;;;;;;5015391;28;20053;-54
2022/06/09 10:25:33;;;;;;;3.80;3.38;;;;;;;;;;5014877;28;20401;-46
2022/06/09 10:28:06;;;;;;;3.72;3.42;;;;;;;;;;5015118;28;20430;-47
2022/06/09 10:30:39;;;;;;;5.57;4.10;;;;;;;;;;5015030;28;20022;-47
2022/06/09 10:33:20;;;;;;;4.80;3.30;;;;;;;;;;5014813;28;20462;-50
2022/06/09 10:35:55;;;;;;;6.55;3.38;;;;;;;;;;5015144;28;20041;-50
2022/06/09 10:38:36;;;;;;;3.35;3.15;;;;;;;;;;5014937;28;20033;-48
2022/06/09 10:41:09;;;;;;;3.60;3.30;;;;;;;;;;5014537;28;20069;-48
2022/06/09 10:43:57;;;;;;;3.63;3.33;;;;;;;;;;5014925;28;20034;-47
2022/06/09 10:46:25;;;;;;;3.92;3.53;;;;;;;;;;5014780;28;20030;-48
2022/06/09 10:55:15;;;;;;;3.95;3.55;;;;;;;;;;5014813;28;20041;-51
2022/06/09 10:57:49;;;;;;;3.75;3.40;;;;;;;;;;5014305;28;20473;-49
2022/06/09 11:00:28;;;;;;;6.18;3.47;;;;;;;;;;5014412;28;20470;-49
2022/06/09 11:02:55;;;;;;;3.90;3.50;;;;;;;;;;5014578;28;20053;-47
2022/06/09 11:05:37;;;;;;;7.38;3.70;;;;;;;;;;5014098;28;20062;-48
2022/06/09 11:08:14;;;;;;;3.58;3.28;;;;;;;;;;5014195;28;20036;-49
2022/06/09 11:11:06;;;;;;;3.42;3.08;;;;;;;;;;5014548;28;20030;-49
2022/06/09 11:13:49;;;;;;;3.50;3.20;;;;;;;;;;5013374;28;20033;-55
2022/06/09 11:16:35;;;;;;;3.75;3.40;;;;;;;;;;5014380;28;20084;-53
2022/06/09 11:19:23;;;;;;;3.95;3.30;;;;;;;;;;5013912;28;20065;-50
2022/06/09 11:22:18;;;;;;;3.78;3.38;;;;;;;;;;5013936;28;20022;-47
2022/06/09 11:25:01;;;;;;;3.80;3.50;;;;;;;;;;4943178;28;20107;-55
2022/06/09 11:27:39;;;;;;;4.40;4.00;;;;;;;;;;5013762;28;20030;-53
2022/06/09 11:30:29;;;;;;;3.92;2.85;;;;;;;;;;5014021;28;20034;-53
2022/06/09 11:33:31;;;;;;;4.43;4.03;;;;;;;;;;4975996;28;20057;-48
2022/06/09 11:36:20;;;;;;;5.03;2.63;;;;;;;;;;4942884;28;20450;-51
2022/06/09 11:38:54;;;;;;;4.75;3.05;;;;;;;;;;5013520;28;20554;-48
2022/06/09 11:41:37;;;;;;;3.38;3.08;;;;;;;;;;5013248;28;20049;-53
2022/06/09 11:44:02;;;;;;;2.60;2.40;;;;;;;;;;5013756;28;20026;-50
2022/06/09 11:46:32;;;;;;;3.03;2.17;;;;;;;;;;5013622;28;20048;-56
2022/06/09 11:49:05;;;;;;;4.15;3.53;;;;;;;;;;5013475;28;20066;-56
2022/06/09 11:51:34;;;;;;;5.72;3.67;;;;;;;;;;5013657;28;20022;-53
2022/06/09 11:54:06;;;;;;;4.88;4.15;;;;;;;;;;5013398;28;20057;-52
2022/06/09 11:56:45;;;;;;;3.65;3.30;;;;;;;;;;5013468;28;20563;-48
2022/06/09 11:59:17;;;;;;;7.03;3.55;;;;;;;;;;5013427;28;20045;-55
2022/06/09 12:02:01;;;;;;;3.60;3.17;;;;;;;;;;5013492;28;20025;-49
2022/06/09 12:04:29;;;;;;;3.95;3.40;;;;;;;;;;5012951;28;20112;-52
2022/06/09 12:07:19;;;;;;;2.75;2.55;;;;;;;;;;5013168;28;20041;-59
2022/06/09 12:09:54;;;;;;;2.60;2.10;;;;;;;;;;5013113;28;20053;-53
2022/06/09 12:12:40;;;;;;;4.35;2.90;;;;;;;;;;5013330;28;20096;-56
2022/06/09 12:15:08;;;;;;;3.50;2.45;;;;;;;;;;5013097;28;20045;-52
2022/06/09 12:17:34;;;;;;;2.72;2.30;;;;;;;;;;5012936;28;20475;-51
2022/06/09 12:20:07;;;;;;;3.53;3.22;;;;;;;;;;5013002;28;20045;-49
2022/06/09 12:22:39;;;;;;;7.40;3.90;;;;;;;;;;4995340;28;20061;-49
2022/06/09 12:25:07;;;;;;;5.78;4.10;;;;;;;;;;5012655;28;20066;-47
2022/06/09 12:27:43;;;;;;;4.95;4.45;;;;;;;;;;5012928;28;20022;-54
2022/06/09 12:30:15;;;;;;;6.00;3.95;;;;;;;;;;5012695;28;20623;-47
2022/06/09 12:32:52;;;;;;;4.47;3.55;;;;;;;;;;5012865;28;20099;-51
2022/06/09 12:35:49;;;;;;;3.85;3.13;;;;;;;;;;5012451;28;20474;-52
2022/06/09 12:38:26;;;;;;;5.78;3.42;;;;;;;;;;4943144;28;20051;-51
2022/06/09 12:40:56;;;;;;;3.33;3.03;;;;;;;;;;5012231;28;20046;-47
2022/06/09 12:43:32;;;;;;;4.68;3.13;;;;;;;;;;5012402;28;20033;-52
2022/06/09 12:46:20;;;;;;;6.40;3.88;;;;;;;;;;5012535;28;20029;-51
2022/06/09 12:48:47;;;;;;;4.63;2.90;;;;;;;;;;4999466;28;20169;-50
2022/06/09 12:51:20;;;;;;;3.50;3.20;;;;;;;;;;5012261;28;20033;-49
2022/06/09 12:53:55;;;;;;;2.63;2.28;;;;;;;;;;5012465;28;20022;-50
2022/06/09 12:56:24;;;;;;;4.03;3.53;;;;;;;;;;5012224;28;20029;-50
2022/06/09 12:58:50;;;;;;;3.10;2.80;;;;;;;;;;4994464;28;20464;-43
2022/06/09 13:01:25;;;;;;;3.72;2.85;;;;;;;;;;5012292;28;20173;-51
2022/06/09 13:03:52;;;;;;;2.45;2.13;;;;;;;;;;5012275;28;20030;-49
2022/06/09 13:06:33;;;;;;;2.03;1.88;;;;;;;;;;5012002;28;20026;-50
2022/06/09 13:09:13;;;;;;;3.33;2.78;;;;;;;;;;5012179;28;20026;-51
2022/06/09 13:14:27;;;;;;;2.10;1.90;;;;;;;;;;5012000;28;20010;-46
2022/06/09 13:16:59;;;;;;;2.05;1.92;;;;;;;;;;5012155;28;20061;-50
2022/06/09 13:19:30;;;;;;;1.85;1.70;;;;;;;;;;5012200;28;20033;-49
2022/06/09 13:21:59;;;;;;;1.88;1.55;;;;;;;;;;5011986;28;20052;-50
2022/06/09 13:24:29;;;;;;;1.70;1.50;;;;;;;;;;5011737;28;20034;-50
2022/06/09 13:26:55;;;;;;;;;;;;;;;;;;5012378;28;20030;-50
2022/06/09 13:29:28;;;;;;;3.47;2.25;;;;;;;;;;5011713;28;19917;-48
2022/06/09 13:32:11;;;;;;;2.03;1.83;;;;;;;;;;5011939;28;20042;-48
2022/06/09 13:34:44;;;;;;;1.52;1.30;;;;;;;;;;5011536;28;20026;-51
2022/06/09 13:37:14;;;;;;;1.27;1.05;;;;;;;;;;5011433;28;20037;-55
2022/06/09 13:40:00;;;;;;;1.08;1.00;;;;;;;;;;5011544;28;20068;-50
2022/06/09 13:42:28;;;;;;;1.30;1.20;;;;;;;;;;5011235;28;20049;-50
2022/06/09 13:45:00;;;;;;;1.90;1.70;;;;;;;;;;5011682;28;20018;-54
2022/06/09 13:47:34;;;;;;;1.38;1.27;;;;;;;;;;5011626;28;20389;-56
2022/06/09 13:50:11;;;;;;;3.45;1.40;;;;;;;;;;5011508;28;20057;-55
2022/06/09 13:52:46;;;;;;;1.88;1.27;;;;;;;;;;5011571;28;20033;-56
2022/06/09 13:55:22;;;;;;;1.60;1.33;;;;;;;;;;5010991;28;20474;-46
2022/06/09 13:57:51;;;;;;;1.25;1.15;;;;;;;;;;5011333;28;20030;-57
2022/06/09 14:00:17;;;;;;;1.40;1.30;;;;;;;;;;5011129;28;20049;-58
2022/06/09 14:03:07;;;;;;;1.73;1.63;;;;;;;;;;5011495;28;20030;-47
2022/06/09 14:05:38;;;;;;;1.52;1.42;;;;;;;;;;5002928;28;20441;-47
2022/06/09 14:08:04;;;;;;;7.82;1.98;;;;;;;;;;5011258;28;20061;-47
2022/06/09 14:10:30;;;;;;;1.65;1.20;;;;;;;;;;5011182;28;20037;-55
2022/06/09 14:12:56;;;;;;;1.35;1.20;;;;;;;;;;5010916;28;20026;-55
2022/06/09 14:15:24;;;;;;;1.55;1.33;;;;;;;;;;5011207;28;20469;-51
2022/06/09 14:17:52;;;;;;;1.02;1.02;;;;;;;;;;5010940;28;20540;-48
2022/06/09 14:20:23;;;;;;;4.40;1.42;;;;;;;;;;5010771;28;20038;-53
2022/06/09 14:22:49;;;;;;;1.50;1.30;;;;;;;;;;5011014;28;20036;-46
2022/06/09 14:25:15;;;;;;;1.73;1.38;;;;;;;;;;5011166;28;20033;-47
2022/06/09 14:27:42;;;;;;;1.63;1.17;;;;;;;;;;5010918;28;20021;-44
2022/06/09 14:30:08;;;;;;;1.42;1.35;;;;;;;;;;5010764;28;20084;-50
2022/06/09 14:32:35;;;;;;;1.27;1.17;;;;;;;;;;5010933;28;20651;-48
2022/06/09 14:35:02;;;;;;;1.80;1.33;;;;;;;;;;5010815;28;20037;-50
2022/06/09 14:37:27;;;;;;;1.42;1.33;;;;;;;;;;5010940;28;20071;-46
2022/06/09 14:39:52;;;;;;;1.23;1.13;;;;;;;;;;5010521;28;20030;-51
2022/06/09 14:42:18;;;;;;;1.08;1.02;;;;;;;;;;5010668;28;20077;-46
2022/06/09 14:44:46;;;;;;;2.33;1.83;;;;;;;;;;5010785;28;20029;-51
2022/06/09 14:47:14;;;;;;;3.45;1.52;;;;;;;;;;5010932;28;20026;-51
2022/06/09 14:49:39;;;;;;;2.85;2.35;;;;;;;;;;5010961;28;20081;-53
2022/06/09 14:52:05;;;;;;;2.63;2.22;;;;;;;;;;5010938;28;20053;-53
2022/06/09 14:54:32;;;;;;;2.72;2.00;;;;;;;;;;5010559;28;20501;-48
2022/06/09 14:57:00;;;;;;;2.33;2.10;;;;;;;;;;5010655;28;20041;-47
2022/06/09 14:59:26;;;;;;;1.90;1.80;;;;;;;;;;5010752;28;20049;-49
2022/06/09 15:01:52;;;;;;;3.65;2.22;;;;;;;;;;5010486;28;20653;-47
2022/06/09 15:04:17;;;;;;;3.05;1.92;;;;;;;;;;5011050;28;20022;-55
2022/06/09 15:06:43;;;;;;;3.80;2.38;;;;;;;;;;5012257;28;20037;-57
2022/06/09 15:09:09;;;;;;;2.60;2.28;;;;;;;;;;5013973;28;20061;-52
2022/06/09 15:11:35;;;;;;;2.25;1.80;;;;;;;;;;5014441;28;20113;-58
2022/06/09 15:14:00;;;;;;;4.03;2.13;;;;;;;;;;5014367;28;20183;-52
2022/06/09 15:16:29;;;;;;;2.03;1.88;;;;;;;;;;5014153;28;20093;-52
2022/06/09 15:18:55;;;;;;;6.07;1.40;;;;;;;;;;5014084;28;20085;-51
2022/06/09 15:21:22;;;;;;;5.13;2.10;;;;;;;;;;5014025;28;20465;-50
2022/06/09 15:23:48;;;;;;;2.47;2.28;;;;;;;;;;5013848;28;20611;-47
2022/06/09 15:26:19;;;;;;;2.03;1.73;;;;;;;;;;5014202;28;20037;-54
2022/06/09 15:28:46;;;;;;;2.67;2.47;;;;;;;;;;5013981;28;20046;-58
2022/06/09 15:31:11;;;;;;;2.00;1.83;;;;;;;;;;5013958;28;20079;-59